Weather observations for the past three days for
Stephenville, Clark Field Municipal Airport
Imperial (Metric)
Date Time (cdt) Wind (mph) Vis. (mi.) Weather Sky Cond. Temperature (ºF) Relative Humidity Wind Chill (°F) Heat Index (°F) Pressure Precipitation (in)
Air Dwpt 6 hour altimeter (in) sea level (mb) 1 hr 3 hr 6 hr
Max. Min.
02 09:15 Calm 10.00 Fair CLR 83.3 67.6 59% 86 30.06 0.0
02 08:55 S 5 10.00 Fair CLR 81.3 67.5 63% 84 30.06 0.0
02 08:35 S 3 10.00 Fair CLR 80.2 67.1 64% 83 30.06 0.0
02 08:15 SE 5 10.00 Fair CLR 78.6 66.7 67% 81 30.05 0.0
02 07:55 E 5 10.00 Fair CLR 75.7 66.6 73% 77 30.05 0.0
02 07:35 E 5 10.00 Fair CLR 74.5 66 75% 30.04 0.0
02 07:15 Calm 10.00 Fair CLR 75.9 66.2 72% 77 30.04 0.0
02 06:55 Calm 10.00 Fair CLR 75.6 66.2 81.5 75.2 73% 77 30.03 0.0
02 06:35 S 3 10.00 Fair CLR 75.7 66.2 72% 77 30.02 0.0
02 06:15 S 3 10.00 Fair CLR 76.3 66.2 71% 78 30.03 0.0
02 05:55 S 5 10.00 Fair CLR 77 66.2 69% 79 30.03 0.0
02 05:35 S 3 10.00 Fair CLR 77.5 66.2 68% 79 30.03 0.0
02 05:15 S 3 10.00 Fair CLR 77.5 66.2 68% 79 30.04 0.0
02 04:55 S 5 10.00 Fair CLR 77.7 66 67% 80 30.03 0.0
02 04:35 SE 5 10.00 Fair CLR 77.5 65.8 67% 79 30.03 0.0
02 04:15 SE 5 10.00 Fair CLR 77.7 66 67% 80 30.04 0.0
02 03:55 S 3 10.00 Partly Cloudy SCT110 77.9 65.8 67% 80 30.03 0.0
02 03:35 Calm 10.00 Partly Cloudy SCT110 77.9 65.7 66% 80 30.04 0.0
02 03:15 SE 3 10.00 Fair CLR 78.3 65.7 65% 80 30.04 0.0
02 02:55 SE 5 10.00 Fair CLR 78.8 65.7 64% 81 30.04 0.0
02 02:35 SE 5 10.00 Fair CLR 79.3 65.5 63% 81 30.04 0.0
02 02:15 S 6 10.00 Fair CLR 80.1 65.3 61% 82 30.04 0.0
02 01:55 SE 7 10.00 Fair CLR 81 65.3 59% 83 30.04 0.0
02 01:35 SE 9 10.00 Fair CLR 81.5 64.6 57% 83 30.04 0.0
02 01:15 SE 6 10.00 Fair CLR 80.8 63.5 56% 82 30.04 0.0
02 00:55 SE 3 10.00 Fair CLR 80.4 63.3 95.4 80.4 56% 82 30.03 0.0
02 00:35 SE 3 10.00 Fair CLR 81.1 63 54% 82 30.03 0.0
02 00:15 Calm 10.00 Fair CLR 80.8 63 55% 82 30.03 0.0
01 23:55 Calm 10.00 Fair CLR 81.5 62.8 53% 83 30.03 0.0
01 23:35 S 3 10.00 Fair CLR 82.8 62.8 51% 84 30.03 0.0
01 23:15 SE 5 10.00 Fair CLR 83.5 62.4 49% 84 30.02 0.0
01 22:55 SE 5 10.00 Partly Cloudy SCT120 84.4 62.2 47% 85 30.03 0.0
01 22:35 SE 5 10.00 Fair CLR 85.1 62.1 46% 86 30.02 0.0
01 22:15 SE 5 10.00 Fair CLR 86.2 61.9 44% 87 30.02 0.0
01 21:55 E 6 10.00 Fair CLR 86 61.7 44% 86 30.01 0.0
01 21:35 SE 5 10.00 Fair CLR 86 61.7 44% 86 30 0.0
01 21:15 E 6 10.00 Partly Cloudy SCT110 87.3 61.3 42% 87 29.99 0.0
01 20:55 SE 6 10.00 Partly Cloudy SCT110 88.7 61 39% 89 29.98 0.0
01 20:35 SE 7 10.00 Fair CLR 89.6 60.8 38% 90 29.98 0.0
01 20:15 SE 7 10.00 Fair CLR 90.7 61 37% 91 29.97 0.0
01 19:55 SE 9 10.00 Fair CLR 92.1 60.4 35% 92 29.97 0.0
01 19:35 SE 8 10.00 Fair CLR 93.7 59 31% 93 29.97 0.0
01 19:15 SE 9 10.00 Fair CLR 94.8 58.3 29% 94 29.97 0.0
01 18:55 SE 10 10.00 Fair CLR 95.4 58.6 99.7 95 29% 95 29.97 0.0
01 18:35 SE 10 G 16 10.00 Fair CLR 96.8 59 28% 96 29.98 0.0
01 18:15 SE 8 10.00 Fair CLR 96.1 58.1 28% 95 29.98 0.0
01 17:55 SE 5 10.00 Fair CLR 96.6 58.5 28% 96 29.98 0.0
01 17:35 SE 9 10.00 Fair CLR 95 59 30% 94 29.98 0.0
01 17:15 SE 10 10.00 Fair CLR 95.2 59 30% 95 29.98 0.0
01 16:55 SE 12 10.00 Fair CLR 96.6 59.4 29% 96 29.98 0.0
01 16:35 SE 7 G 16 10.00 Fair CLR 96.8 57 26% 96 29.98 0.0
01 16:15 SE 9 10.00 Partly Cloudy SCT120 99.7 57.4 25% 99 29.99 0.0
01 15:55 SE 6 10.00 Partly Cloudy SCT120 99.7 57.9 25% 99 30 0.0
01 15:35 SE 8 10.00 Partly Cloudy SCT080 SCT100 96.6 57.2 27% 96 30 0.0
01 15:15 E 5 10.00 Partly Cloudy SCT085 SCT100 96.3 57.6 27% 95 30.01 0.0
01 14:55 SE 7 10.00 Mostly Cloudy SCT075 BKN100 99 58.1 26% 98 30.01 0.0
01 14:35 S 12 10.00 Fair CLR 97.7 58.6 27% 97 30.02 0.0
01 14:15 E 7 10.00 Fair CLR 97.9 58.6 27% 97 30.03 0.0
01 13:55 NE 6 10.00 Partly Cloudy SCT110 97 59.4 29% 97 30.03 0.0
01 13:35 E 3 10.00 Partly Cloudy SCT110 96.3 59 29% 96 30.05 0.0
01 13:15 E 7 10.00 Partly Cloudy SCT060 SCT080 97.2 59.5 29% 97 30.06 0.0
01 12:55 W 3 10.00 Mostly Cloudy BKN060 95.5 60.4 96.3 71.6 31% 96 30.07 0.0
01 12:35 E 7 10.00 Partly Cloudy SCT060 95.2 60.8 32% 95 30.07 0.0
01 12:15 SE 9 10.00 Partly Cloudy SCT060 SCT120 93.6 61.7 35% 94 30.09 0.0
01 11:55 Calm 10.00 Fair CLR 93.2 62.2 36% 94 30.09 0.0
01 11:35 S 3 10.00 Fair CLR 92.3 62.4 37% 93 30.09 0.0
01 11:15 S 6 10.00 Fair CLR 91 62.8 39% 92 30.1 0.0
01 10:55 SE 6 10.00 Fair CLR 90.7 62.6 39% 91 30.09 0.0
01 10:35 S 9 10.00 Partly Cloudy SCT090 SCT120 90 63.3 41% 91 30.1 0.0
01 10:15 S 7 10.00 Fair CLR 87.3 64.4 47% 89 30.1 0.0
01 09:55 SW 7 10.00 Fair CLR 86.9 64.4 47% 88 30.09 0.0
01 09:35 S 5 10.00 Fair CLR 84.2 65.1 53% 86 30.1 0.0
01 09:15 S 5 10.00 Fair CLR 81.7 65.5 58% 84 30.1 0.0
01 08:55 S 3 10.00 Fair CLR 79.7 66.2 63% 82 30.1 0.0
01 08:35 Calm 10.00 Fair CLR 78.3 65.3 65% 80 30.09 0.0
01 08:15 Calm 10.00 Fair CLR 75.7 64.4 68% 78 30.09 0.0
01 07:55 Calm 10.00 Fair CLR 73.4 62.6 69% 30.09 0.0
01 07:35 Calm 10.00 Fair CLR 72.1 62.4 72% 30.09 0.0
01 07:15 Calm 4.00 Fair CLR 73.4 61.9 67% 30.07 0.0
01 06:55 Calm 10.00 Fair CLR 72.3 61.7 79 72.3 69% 30.07 0.0
01 06:35 Calm 10.00 Fair CLR 73.6 61.5 66% 30.07 0.0
01 06:15 Calm 10.00 Fair CLR 74.1 62.1 66% 30.07 0.0
01 05:55 Calm 10.00 Fair CLR 73.9 62.2 67% 30.07 0.0
01 05:35 Calm 10.00 Partly Cloudy SCT120 74.5 62.1 65% 30.07 0.0
01 05:15 SE 3 10.00 Partly Cloudy SCT110 74.7 61.9 65% 30.07 0.0
01 04:55 SE 3 10.00 Partly Cloudy SCT110 74.8 61 62% 30.06 0.0
01 04:35 Calm 10.00 Partly Cloudy SCT110 74.8 60.4 61% 30.06 0.0
01 04:15 Calm 10.00 Fair CLR 75.2 59.5 58% 78 30.06 0.0
01 03:55 Calm 10.00 Partly Cloudy SCT110 75.4 58.8 57% 78 30.06 0.0
01 03:35 Calm 10.00 Fair CLR 75.7 58.5 55% 78 30.06 0.0
01 03:15 Calm 10.00 Fair CLR 74.8 58.3 56% 30.06 0.0
01 02:55 Calm 10.00 Partly Cloudy SCT110 75.6 58.3 55% 78 30.06 0.0
01 02:35 Calm 10.00 Fair CLR 76.1 57.6 53% 78 30.06 0.0
01 02:15 S 3 10.00 Fair CLR 73 58.3 60% 30.06 0.0
01 01:55 Calm 10.00 Fair CLR 75.7 58.1 54% 78 30.05 0.0
01 01:35 Calm 10.00 Fair CLR 77 57.4 51% 79 30.05 0.0
01 01:15 Calm 10.00 Partly Cloudy SCT110 78.8 57.2 48% 80 30.04 0.0
01 00:55 Calm 10.00 Fair CLR 79 57.2 95.7 79 47% 80 30.04 0.0
01 00:35 Calm 10.00 Fair CLR 79.5 57 46% 80 30.03 0.0
01 00:15 Calm 10.00 Fair CLR 80.2 56.7 45% 80 30.03 0.0
31 23:55 SE 3 10.00 Fair CLR 81.3 56.5 43% 81 30.03 0.0
31 23:35 Calm 10.00 Partly Cloudy SCT110 81.7 56.7 42% 81 30.03 0.0
31 23:15 Calm 10.00 Partly Cloudy SCT110 82.8 56.5 41% 82 30.03 0.0
31 22:55 SE 5 10.00 Fair CLR 83.7 56.3 39% 83 30.02 0.0
31 22:35 SE 5 10.00 Fair CLR 84.2 55.8 38% 83 30.02 0.0
31 22:15 SE 5 10.00 Fair CLR 84.9 55.4 36% 84 30.02 0.0
31 21:55 SE 6 10.00 Fair CLR 86.2 54.9 34% 85 30.02 0.0
31 21:35 SE 5 10.00 Fair CLR 86.5 54.9 34% 85 30.01 0.0
31 21:15 SE 6 10.00 Fair CLR 86.9 54.7 33% 85 30 0.0
31 20:55 SE 7 10.00 Fair CLR 87.4 54.5 33% 86 30 0.0
31 20:35 SE 5 10.00 Partly Cloudy SCT110 88.7 54.7 31% 87 29.99 0.0
31 20:15 SE 5 10.00 Partly Cloudy SCT110 90.3 54.5 30% 88 29.99 0.0
31 19:55 SE 7 10.00 Fair CLR 92.5 54.5 28% 90 29.99 0.0
31 19:35 SE 10 10.00 Fair CLR 93.7 54 26% 91 29.98 0.0
31 19:15 SE 12 10.00 Fair CLR 95 53.4 25% 93 29.98 0.0
31 18:55 SE 14 10.00 Fair CLR 95.9 53.8 100.2 94.8 24% 94 29.98 0.0
31 18:35 SE 10 G 16 10.00 Partly Cloudy SCT095 97.3 53.1 23% 95 29.98 0.0
31 18:15 SE 13 G 22 10.00 Mostly Cloudy BKN095 97.9 52.7 22% 95 29.98 0.0
31 17:55 SE 9 10.00 Mostly Cloudy BKN095 99.3 52.7 21% 97 29.98 0.0
31 17:35 S 10 G 16 10.00 Mostly Cloudy BKN095 98.8 53.1 22% 96 29.98 0.0
31 17:15 S 8 10.00 Mostly Cloudy BKN095 BKN120 100 54 21% 98 29.99 0.0
31 16:55 SE 7 10.00 Partly Cloudy SCT095 SCT120 99.1 53.6 22% 97 29.99 0.0
31 16:35 S 10 10.00 Partly Cloudy SCT095 99.3 54.1 22% 97 29.99 0.0
31 16:15 S 3 10.00 Partly Cloudy SCT085 95.4 54 25% 93 30 0.0
31 15:55 SE 10 G 16 10.00 Mostly Cloudy BKN085 99.7 53.6 21% 98 30.01 0.0
31 15:35 E 10 10.00 Partly Cloudy SCT085 98.8 52.3 21% 96 30.02 0.0
31 15:15 SE 12 10.00 Partly Cloudy SCT085 98.4 52.5 21% 96 30.02 0.0
31 14:55 S 12 10.00 Partly Cloudy SCT085 99.1 51.8 20% 96 30.03 0.0
31 14:35 S 9 G 17 10.00 Partly Cloudy SCT085 97.7 51.6 21% 95 30.04 0.0
31 14:15 SE 10 G 18 10.00 Partly Cloudy SCT085 97.5 53.8 23% 95 30.05 0.0
31 13:55 SE 10 10.00 Fair CLR 97.3 53.8 23% 95 30.05 0.0
31 13:35 SE 14 G 20 10.00 Fair CLR 96.6 54.5 24% 95 30.06 0.0
31 13:15 S 8 10.00 Fair CLR 96.1 55.6 26% 94 30.07 0.0
31 12:35 S 10 G 16 10.00 Fair CLR 94.5 55.2 27% 93 30.09 0.0
31 12:15 S 9 G 16 10.00 Fair CLR 93.9 57.2 29% 93 30.1 0.0
31 11:55 SE 8 10.00 Fair CLR 93.2 58.5 31% 92 30.1 0.0
31 11:35 S 10 10.00 Fair CLR 92.3 58.6 32% 91 30.1 0.0
31 11:15 S 7 10.00 Fair CLR 90.3 60.3 37% 90 30.1 0.0
31 10:55 S 10 10.00 Fair CLR 89.1 62.8 42% 90 30.1 0.0
31 10:35 S 12 10.00 Fair CLR 87.3 64 46% 89 30.09 0.0
31 10:15 S 8 10.00 Fair CLR 86.9 65.5 49% 89 30.09 0.0
31 09:55 S 9 10.00 Fair CLR 83.8 66.6 56% 86 30.09 0.0
31 09:35 S 6 10.00 Fair CLR 81.9 67.3 61% 84 30.09 0.0
31 09:15 S 6 10.00 Fair CLR 80.2 67.5 65% 83 30.09 0.0
31 08:55 S 7 10.00 Fair CLR 78.3 67.6 70% 80 30.09 0.0
31 08:35 S 6 10.00 Fair CLR 76.5 67.6 74% 78 30.08 0.0
31 08:15 S 6 10.00 Fair CLR 75.9 67.3 75% 77 30.07 0.0
31 07:55 S 5 10.00 Fair CLR 74.5 67.1 78% 30.06 0.0
31 07:35 S 3 10.00 Fair CLR 74.3 66.7 77% 30.06 0.0
31 06:55 S 5 10.00 Partly Cloudy SCT110 74.3 66.6 80.8 74.3 77% 30.04 0.0
31 06:35 S 5 10.00 Partly Cloudy SCT110 74.5 66.2 76% 30.03 0.0
31 06:15 S 6 10.00 Fair CLR 74.5 65.8 75% 30.03 0.0
31 05:55 SE 3 10.00 Fair CLR 74.7 65.3 73% 30.03 0.0
31 05:35 Calm 10.00 Partly Cloudy SCT110 75.2 65.3 71% 77 30.03 0.0
31 05:15 S 3 10.00 Partly Cloudy SCT110 75.2 65.3 71% 77 30.03 0.0
31 04:55 S 3 10.00 Fair CLR 75.4 64.9 70% 77 30.03 0.0
31 04:35 S 3 10.00 Fair CLR 75.6 64.8 69% 77 30.03 0.0
31 04:15 SE 3 10.00 Fair CLR 76.6 64.6 66% 78 30.02 0.0
31 03:55 Calm 10.00 Fair CLR 77.2 64.8 66% 79 30.02 0.0
31 03:35 Calm 10.00 Fair CLR 77.9 64.8 64% 80 30.02 0.0
31 03:15 S 5 10.00 Partly Cloudy SCT110 79 64.8 62% 81 30.02 0.0
31 02:55 S 5 10.00 Partly Cloudy SCT120 79.7 64.6 60% 81 30.02 0.0
31 02:35 S 7 10.00 Fair CLR 79.7 64.4 60% 81 30.03 0.0
31 02:15 S 6 10.00 Fair CLR 79.9 63.7 58% 81 30.03 0.0
31 01:55 S 6 10.00 Partly Cloudy SCT120 80.1 62.8 56% 81 30.02 0.0
31 01:35 S 6 10.00 Fair CLR 80.6 61.7 53% 82 30.03 0.0
31 01:15 S 6 10.00 Partly Cloudy SCT110 80.2 60.4 51% 81 30.02 0.0
31 00:55 S 6 10.00 Fair CLR 79.9 59.4 96.8 79.7 50% 81 30.03 0.0
31 00:35 S 5 10.00 Fair CLR 79.9 58.6 48% 81 30.02 0.0
31 00:15 S 3 10.00 Fair CLR 80.6 58.3 47% 81 30.02 0.0
30 23:55 S 3 10.00 Fair CLR 81.5 58.1 45% 82 30.02 0.0
30 23:35 S 5 10.00 Fair CLR 82.2 58.1 44% 82 30.02 0.0
30 23:15 SE 5 10.00 Partly Cloudy SCT120 82.9 58.1 43% 83 30.02 0.0
30 22:55 SE 5 10.00 Partly Cloudy SCT120 83.5 57.6 41% 83 30.02 0.0
30 22:35 SE 5 10.00 Fair CLR 84.2 57.2 40% 83 30.01 0.0
30 22:15 SE 5 10.00 Fair CLR 85.8 57.4 38% 85 30 0.0
30 21:55 SE 7 10.00 Partly Cloudy SCT110 86.9 57.2 37% 86 29.99 0.0
30 21:35 SE 7 10.00 Fair CLR 87.3 56.8 36% 86 29.99 0.0
30 21:15 SE 8 10.00 Fair CLR 88.3 56.1 34% 87 29.98 0.0
30 20:55 SE 8 10.00 Fair CLR 89.2 55.4 32% 87 29.97 0.0
30 20:35 SE 7 10.00 Fair CLR 90 55.4 31% 88 29.96 0.0
30 20:15 SE 9 10.00 Fair CLR 91.2 55 29% 89 29.96 0.0
30 19:55 SE 8 10.00 Fair CLR 92.8 54.5 27% 91 29.96 0.0
30 19:35 SE 9 10.00 Partly Cloudy SCT120 94.5 53.4 25% 92 29.95 0.0
30 19:15 SE 9 10.00 Partly Cloudy SCT120 95.9 52.2 23% 93 29.95 0.0
30 18:55 SE 9 10.00 Fair CLR 96.8 52.3 100.9 96.1 22% 94 29.95 0.0
30 18:35 SE 8 10.00 Fair CLR 97.7 51.8 21% 95 29.95 0.0
30 18:15 S 8 10.00 Partly Cloudy SCT110 98.8 50.9 20% 96 29.96 0.0
30 17:55 S 6 10.00 Fair CLR 99.1 50 19% 96 29.96 0.0
30 17:35 S 6 10.00 Fair CLR 99.9 49.3 18% 97 29.96 0.0
30 17:15 SE 8 10.00 Fair CLR 99.7 49.3 18% 96 29.96 0.0
30 16:55 S 7 10.00 Fair CLR 99.5 50.9 19% 97 29.96 0.0
30 16:35 SE 9 G 18 10.00 Fair CLR 100.6 50 18% 98 29.97 0.0
30 16:15 S 8 G 16 10.00 Fair CLR 100.9 49.8 18% 98 29.98 0.0
30 15:55 SE 9 10.00 Fair CLR 99.9 48.4 17% 96 29.98 0.0
30 15:35 SE 9 10.00 Fair CLR 99.7 50 19% 97 29.99 0.0
30 15:15 S 9 10.00 Fair CLR 99 51.3 20% 96 30 0.0
30 14:55 E 12 10.00 Fair CLR 99.1 51.1 20% 96 30.01 0.0
30 14:35 SE 8 G 16 10.00 Fair CLR 98.6 51.6 21% 96 30.02 0.0
30 14:15 SE 8 10.00 Fair CLR 99.5 52.2 20% 97 30.02 0.0
30 13:55 S 9 10.00 Fair CLR 97.7 54.1 23% 96 30.03 0.0
30 13:35 S 6 G 18 10.00 Fair CLR 97.9 54.7 24% 96 30.04 0.0
30 13:15 S 9 10.00 Fair CLR 97 54.9 24% 95 30.05 0.0
30 12:55 S 10 10.00 Fair CLR 96.6 56.3 96.8 73 26% 95 30.06 0.0
30 12:35 S 7 10.00 Fair CLR 95.9 57.7 28% 95 30.07 0.0
30 12:15 SE 7 G 16 10.00 Partly Cloudy SCT065 94.1 58.6 31% 93 30.08 0.0
30 11:55 SE 9 10.00 Partly Cloudy SCT060 93.9 60.4 33% 94 30.09 0.0
30 11:35 SW 9 10.00 Fair CLR 92.7 62.1 36% 93 30.09 0.0
30 11:15 S 9 10.00 Fair CLR 91.6 62.4 38% 92 30.09 0.0
30 10:55 S 8 10.00 Fair CLR 91 63 39% 92 30.09 0.0
30 10:35 S 8 10.00 Fair CLR 89.8 63.5 42% 91 30.09 0.0
30 10:15 S 7 10.00 Fair CLR 88.7 64 44% 90 30.09 0.0
30 09:55 SW 7 10.00 Fair CLR 87.6 64.2 46% 89 30.09 0.0
30 09:35 SW 8 10.00 Fair CLR 85.5 64.2 49% 87 30.09 0.0
Date Time (cdt) Wind (mph) Vis. (mi.) Weather Sky Cond. Air Dwpt Max. Min. Relative Humidity Wind Chill (°F) Heat Index (°F) altimeter (in) sea level (mb) 1 hr 3 hr 6 hr
6 hour
Temperature (ºF) Pressure Precipitation (in)